sensor_id;sensor_type;location;lat;lon;timestamp;pressure;altitude;pressure_sealevel;temperature;humidity
76637;BME280;65532;52.124;5.480;2023-12-28T00:01:45;100743.56;;;9.69;100.00
76637;BME280;65532;52.124;5.480;2023-12-28T00:04:12;100751.22;;;9.72;100.00
76637;BME280;65532;52.124;5.480;2023-12-28T00:06:38;100748.75;;;9.70;100.00
76637;BME280;65532;52.124;5.480;2023-12-28T00:09:05;100747.69;;;9.71;100.00
76637;BME280;65532;52.124;5.480;2023-12-28T00:11:38;100755.94;;;9.76;100.00
76637;BME280;65532;52.124;5.480;2023-12-28T00:14:04;100753.41;;;9.81;100.00
76637;BME280;65532;52.124;5.480;2023-12-28T00:16:31;100775.41;;;9.85;100.00
76637;BME280;65532;52.124;5.480;2023-12-28T00:19:03;100786.56;;;9.88;100.00
76637;BME280;65532;52.124;5.480;2023-12-28T00:21:31;100779.50;;;9.87;100.00
76637;BME280;65532;52.124;5.480;2023-12-28T00:23:57;100775.41;;;9.85;100.00
76637;BME280;65532;52.124;5.480;2023-12-28T00:26:24;100777.88;;;9.86;100.00
76637;BME280;65532;52.124;5.480;2023-12-28T00:29:01;100773.75;;;9.84;100.00
76637;BME280;65532;52.124;5.480;2023-12-28T00:31:27;100791.16;;;9.88;100.00
76637;BME280;65532;52.124;5.480;2023-12-28T00:33:54;100788.22;;;9.89;100.00
76637;BME280;65532;52.124;5.480;2023-12-28T00:36:21;100797.38;;;9.88;100.00
76637;BME280;65532;52.124;5.480;2023-12-28T00:38:47;100798.22;;;9.89;100.00
76637;BME280;65532;52.124;5.480;2023-12-28T00:41:14;100799.28;;;9.88;100.00
76637;BME280;65532;52.124;5.480;2023-12-28T00:43:40;100801.97;;;9.88;100.00
76637;BME280;65532;52.124;5.480;2023-12-28T00:46:07;100801.59;;;9.84;100.00
76637;BME280;65532;52.124;5.480;2023-12-28T00:48:33;100802.06;;;9.81;100.00
76637;BME280;65532;52.124;5.480;2023-12-28T00:51:00;100803.56;;;9.77;100.00
76637;BME280;65532;52.124;5.480;2023-12-28T00:53:27;100813.78;;;9.75;100.00
76637;BME280;65532;52.124;5.480;2023-12-28T00:55:54;100814.22;;;9.72;100.00
76637;BME280;65532;52.124;5.480;2023-12-28T00:58:21;100808.59;;;9.74;100.00
76637;BME280;65532;52.124;5.480;2023-12-28T01:00:48;100806.13;;;9.72;100.00
76637;BME280;65532;52.124;5.480;2023-12-28T01:03:15;100806.56;;;9.69;100.00
76637;BME280;65532;52.124;5.480;2023-12-28T01:05:41;100802.81;;;9.70;100.00
76637;BME280;65532;52.124;5.480;2023-12-28T01:08:08;100802.22;;;9.68;100.00
76637;BME280;65532;52.124;5.480;2023-12-28T01:10:34;100802.22;;;9.68;100.00
76637;BME280;65532;52.124;5.480;2023-12-28T01:13:01;100801.47;;;9.61;100.00
76637;BME280;65532;52.124;5.480;2023-12-28T01:15:28;100797.78;;;9.55;100.00
76637;BME280;65532;52.124;5.480;2023-12-28T01:17:55;100805.31;;;9.53;100.00
76637;BME280;65532;52.124;5.480;2023-12-28T01:20:23;100810.34;;;9.50;100.00
76637;BME280;65532;52.124;5.480;2023-12-28T01:22:49;100818.69;;;9.48;100.00
76637;BME280;65532;52.124;5.480;2023-12-28T01:25:16;100817.84;;;9.48;100.00
76637;BME280;65532;52.124;5.480;2023-12-28T01:27:43;100811.22;;;9.44;100.00
76637;BME280;65532;52.124;5.480;2023-12-28T01:30:10;100813.78;;;9.39;100.00
76637;BME280;65532;52.124;5.480;2023-12-28T01:32:37;100826.91;;;9.35;100.00
76637;BME280;65532;52.124;5.480;2023-12-28T01:35:03;100827.50;;;9.37;100.00
76637;BME280;65532;52.124;5.480;2023-12-28T01:37:30;100831.63;;;9.40;100.00
76637;BME280;65532;52.124;5.480;2023-12-28T01:40:00;100827.16;;;9.34;100.00
76637;BME280;65532;52.124;5.480;2023-12-28T01:42:27;100827.56;;;9.30;100.00
76637;BME280;65532;52.124;5.480;2023-12-28T01:44:57;100825.91;;;9.29;100.00
76637;BME280;65532;52.124;5.480;2023-12-28T01:47:26;100822.16;;;9.30;100.00
76637;BME280;65532;52.124;5.480;2023-12-28T01:49:54;100822.63;;;9.27;100.00
76637;BME280;65532;52.124;5.480;2023-12-28T01:52:21;100823.06;;;9.24;100.00
76637;BME280;65532;52.124;5.480;2023-12-28T01:54:47;100814.38;;;9.22;100.00
76637;BME280;65532;52.124;5.480;2023-12-28T01:57:15;100823.06;;;9.24;100.00
76637;BME280;65532;52.124;5.480;2023-12-28T01:59:43;100833.88;;;9.24;100.00
76637;BME280;65532;52.124;5.480;2023-12-28T02:02:11;100830.34;;;9.24;100.00
76637;BME280;65532;52.124;5.480;2023-12-28T02:04:37;100823.53;;;9.21;100.00
76637;BME280;65532;52.124;5.480;2023-12-28T02:07:05;100833.03;;;9.24;100.00
76637;BME280;65532;52.124;5.480;2023-12-28T02:09:32;100823.06;;;9.24;100.00
76637;BME280;65532;52.124;5.480;2023-12-28T02:11:59;100831.16;;;9.24;100.00
76637;BME280;65532;52.124;5.480;2023-12-28T02:14:26;100826.00;;;9.23;100.00
76637;BME280;65532;52.124;5.480;2023-12-28T02:17:03;100825.16;;;9.22;100.00
76637;BME280;65532;52.124;5.480;2023-12-28T02:22:08;100827.72;;;9.17;100.00
76637;BME280;65532;52.124;5.480;2023-12-28T02:27:47;100818.56;;;9.18;100.00
76637;BME280;65532;52.124;5.480;2023-12-28T02:30:16;100814.22;;;9.17;100.00
76637;BME280;65532;52.124;5.480;2023-12-28T02:33:07;100813.53;;;9.22;100.00
76637;BME280;65532;52.124;5.480;2023-12-28T02:38:12;100805.94;;;9.30;100.00
76637;BME280;65532;52.124;5.480;2023-12-28T02:40:42;100806.28;;;9.41;100.00
76637;BME280;65532;52.124;5.480;2023-12-28T02:43:12;100800.41;;;9.44;100.00
76637;BME280;65532;52.124;5.480;2023-12-28T02:45:39;100796.81;;;9.50;100.00
76637;BME280;65532;52.124;5.480;2023-12-28T02:48:07;100792.03;;;9.52;100.00
76637;BME280;65532;52.124;5.480;2023-12-28T02:50:35;100785.25;;;9.61;100.00
76637;BME280;65532;52.124;5.480;2023-12-28T02:53:02;100797.69;;;9.62;100.00
76637;BME280;65532;52.124;5.480;2023-12-28T02:55:28;100800.81;;;9.66;100.00
76637;BME280;65532;52.124;5.480;2023-12-28T02:57:56;100786.88;;;9.62;100.00
76637;BME280;65532;52.124;5.480;2023-12-28T03:00:27;100775.06;;;9.63;100.00
76637;BME280;65532;52.124;5.480;2023-12-28T03:02:54;100776.94;;;9.63;100.00
76637;BME280;65532;52.124;5.480;2023-12-28T03:05:21;100790.66;;;9.61;100.00
76637;BME280;65532;52.124;5.480;2023-12-28T03:07:48;100792.28;;;9.62;100.00
76637;BME280;65532;52.124;5.480;2023-12-28T03:10:14;100784.41;;;9.60;100.00
76637;BME280;65532;52.124;5.480;2023-12-28T03:12:41;100787.81;;;9.56;100.00
76637;BME280;65532;52.124;5.480;2023-12-28T03:15:08;100782.41;;;9.56;100.00
76637;BME280;65532;52.124;5.480;2023-12-28T03:17:34;100797.34;;;9.58;100.00
76637;BME280;65532;52.124;5.480;2023-12-28T03:20:03;100798.56;;;9.63;100.00
76637;BME280;65532;52.124;5.480;2023-12-28T03:22:30;100809.16;;;9.64;100.00
76637;BME280;65532;52.124;5.480;2023-12-28T03:24:57;100794.13;;;9.68;100.00
76637;BME280;65532;52.124;5.480;2023-12-28T03:27:23;100799.28;;;9.70;100.00
76637;BME280;65532;52.124;5.480;2023-12-28T03:29:50;100798.59;;;9.74;100.00
76637;BME280;65532;52.124;5.480;2023-12-28T03:32:16;100791.72;;;9.78;100.00
76637;BME280;65532;52.124;5.480;2023-12-28T03:34:43;100812.28;;;9.79;100.00
76637;BME280;65532;52.124;5.480;2023-12-28T03:37:09;100790.19;;;9.82;100.00
76637;BME280;65532;52.124;5.480;2023-12-28T03:39:37;100785.03;;;9.81;100.00
76637;BME280;65532;52.124;5.480;2023-12-28T03:42:04;100785.16;;;9.86;100.00
76637;BME280;65532;52.124;5.480;2023-12-28T03:44:31;100783.88;;;9.88;100.00
76637;BME280;65532;52.124;5.480;2023-12-28T03:46:57;100776.00;;;9.87;100.00
76637;BME280;65532;52.124;5.480;2023-12-28T03:49:24;100788.09;;;9.84;100.00
76637;BME280;65532;52.124;5.480;2023-12-28T03:51:51;100793.50;;;9.84;100.00
76637;BME280;65532;52.124;5.480;2023-12-28T03:54:18;100781.16;;;9.88;100.00
76637;BME280;65532;52.124;5.480;2023-12-28T03:56:46;100792.81;;;9.89;100.00
76637;BME280;65532;52.124;5.480;2023-12-28T03:59:13;100784.94;;;9.87;100.00
76637;BME280;65532;52.124;5.480;2023-12-28T04:01:41;100765.41;;;9.85;100.00
76637;BME280;65532;52.124;5.480;2023-12-28T04:04:08;100775.41;;;9.85;100.00
76637;BME280;65532;52.124;5.480;2023-12-28T04:06:36;100784.34;;;9.85;100.00
76637;BME280;65532;52.124;5.480;2023-12-28T04:09:03;100788.31;;;9.83;100.00
76637;BME280;65532;52.124;5.480;2023-12-28T04:11:30;100782.56;;;9.79;100.00
76637;BME280;65532;52.124;5.480;2023-12-28T04:13:56;100790.03;;;9.77;100.00
76637;BME280;65532;52.124;5.480;2023-12-28T04:16:23;100771.56;;;9.74;100.00
76637;BME280;65532;52.124;5.480;2023-12-28T04:18:49;100783.44;;;9.73;100.00
76637;BME280;65532;52.124;5.480;2023-12-28T04:21:16;100796.38;;;9.71;100.00
76637;BME280;65532;52.124;5.480;2023-12-28T04:23:42;100786.59;;;9.70;100.00
76637;BME280;65532;52.124;5.480;2023-12-28T04:26:09;100792.47;;;9.67;100.00
76637;BME280;65532;52.124;5.480;2023-12-28T04:28:35;100787.66;;;9.69;100.00
76637;BME280;65532;52.124;5.480;2023-12-28T04:31:03;100788.13;;;9.66;100.00
76637;BME280;65532;52.124;5.480;2023-12-28T04:33:30;100787.53;;;9.64;100.00
76637;BME280;65532;52.124;5.480;2023-12-28T04:36:01;100784.00;;;9.64;100.00
76637;BME280;65532;52.124;5.480;2023-12-28T04:38:30;100789.75;;;9.67;100.00
76637;BME280;65532;52.124;5.480;2023-12-28T04:40:58;100791.63;;;9.67;100.00
76637;BME280;65532;52.124;5.480;2023-12-28T04:43:25;100789.75;;;9.67;100.00
76637;BME280;65532;52.124;5.480;2023-12-28T04:45:52;100798.00;;;9.72;100.00
76637;BME280;65532;52.124;5.480;2023-12-28T04:48:19;100790.94;;;9.71;100.00
76637;BME280;65532;52.124;5.480;2023-12-28T04:50:51;100787.19;;;9.72;100.00
76637;BME280;65532;52.124;5.480;2023-12-28T04:53:19;100786.72;;;9.75;100.00
76637;BME280;65532;52.124;5.480;2023-12-28T04:55:45;100785.69;;;9.76;100.00
76637;BME280;65532;52.124;5.480;2023-12-28T04:58:12;100780.03;;;9.78;100.00
76637;BME280;65532;52.124;5.480;2023-12-28T05:00:39;100781.50;;;9.80;100.00
76637;BME280;65532;52.124;5.480;2023-12-28T05:03:06;100778.56;;;9.82;100.00
76637;BME280;65532;52.124;5.480;2023-12-28T05:05:33;100784.94;;;9.87;100.00
76637;BME280;65532;52.124;5.480;2023-12-28T05:08:00;100780.81;;;9.85;100.00
76637;BME280;65532;52.124;5.480;2023-12-28T05:10:27;100796.94;;;9.91;100.00
76637;BME280;65532;52.124;5.480;2023-12-28T05:12:53;100791.28;;;9.93;100.00
76637;BME280;65532;52.124;5.480;2023-12-28T05:15:27;100794.81;;;9.94;100.00
76637;BME280;65532;52.124;5.480;2023-12-28T05:17:54;100811.91;;;9.94;100.00
76637;BME280;65532;52.124;5.480;2023-12-28T05:20:21;100798.97;;;9.96;100.00
76637;BME280;65532;52.124;5.480;2023-12-28T05:22:48;100807.69;;;9.98;100.00
76637;BME280;65532;52.124;5.480;2023-12-28T05:25:15;100788.50;;;10.00;100.00
76637;BME280;65532;52.124;5.480;2023-12-28T05:27:41;100803.22;;;10.04;100.00
76637;BME280;65532;52.124;5.480;2023-12-28T05:30:09;100798.41;;;10.06;100.00
76637;BME280;65532;52.124;5.480;2023-12-28T05:32:37;100794.06;;;10.05;100.00
76637;BME280;65532;52.124;5.480;2023-12-28T05:35:04;100806.53;;;10.06;100.00
76637;BME280;65532;52.124;5.480;2023-12-28T05:37:31;100813.75;;;10.12;100.00
76637;BME280;65532;52.124;5.480;2023-12-28T05:39:57;100798.09;;;10.14;100.00
76637;BME280;65532;52.124;5.480;2023-12-28T05:42:24;100801.16;;;10.17;100.00
76637;BME280;65532;52.124;5.480;2023-12-28T05:44:50;100796.56;;;10.18;100.00
76637;BME280;65532;52.124;5.480;2023-12-28T05:47:17;100804.47;;;10.19;100.00
76637;BME280;65532;52.124;5.480;2023-12-28T05:49:43;100803.22;;;10.22;100.00
76637;BME280;65532;52.124;5.480;2023-12-28T05:52:10;100810.25;;;10.23;100.00
76637;BME280;65532;52.124;5.480;2023-12-28T05:54:37;100794.41;;;10.27;100.00
76637;BME280;65532;52.124;5.480;2023-12-28T05:57:03;100800.03;;;10.25;100.00
76637;BME280;65532;52.124;5.480;2023-12-28T05:59:30;100810.66;;;10.27;100.00
76637;BME280;65532;52.124;5.480;2023-12-28T06:01:57;100802.66;;;10.32;100.00
76637;BME280;65532;52.124;5.480;2023-12-28T06:04:23;100802.91;;;10.30;100.00
76637;BME280;65532;52.124;5.480;2023-12-28T06:06:50;100807.72;;;10.28;100.00
76637;BME280;65532;52.124;5.480;2023-12-28T06:09:16;100815.25;;;10.26;100.00
76637;BME280;65532;52.124;5.480;2023-12-28T06:11:43;100805.59;;;10.30;100.00
76637;BME280;65532;52.124;5.480;2023-12-28T06:14:09;100814.31;;;10.32;100.00
76637;BME280;65532;52.124;5.480;2023-12-28T06:16:36;100822.19;;;10.34;100.00
76637;BME280;65532;52.124;5.480;2023-12-28T06:19:02;100798.06;;;10.32;100.00
76637;BME280;65532;52.124;5.480;2023-12-28T06:21:29;100814.31;;;10.32;100.00
76637;BME280;65532;52.124;5.480;2023-12-28T06:23:58;100816.44;;;10.30;100.00
76637;BME280;65532;52.124;5.480;2023-12-28T06:26:24;100823.47;;;10.31;100.00
76637;BME280;65532;52.124;5.480;2023-12-28T06:28:51;100816.19;;;10.32;100.00
76637;BME280;65532;52.124;5.480;2023-12-28T06:31:17;100807.25;;;10.31;100.00
76637;BME280;65532;52.124;5.480;2023-12-28T06:33:44;100829.13;;;10.30;100.00
76637;BME280;65532;52.124;5.480;2023-12-28T06:36:12;100834.53;;;10.30;100.00
76637;BME280;65532;52.124;5.480;2023-12-28T06:38:38;100838.66;;;10.32;100.00
76637;BME280;65532;52.124;5.480;2023-12-28T06:41:12;100842.44;;;10.31;100.00
76637;BME280;65532;52.124;5.480;2023-12-28T06:43:39;100849.50;;;10.32;100.00
76637;BME280;65532;52.124;5.480;2023-12-28T06:46:05;100841.38;;;10.32;100.00
76637;BME280;65532;52.124;5.480;2023-12-28T06:48:32;100834.31;;;10.31;100.00
76637;BME280;65532;52.124;5.480;2023-12-28T06:50:59;100847.59;;;10.33;100.00
76637;BME280;65532;52.124;5.480;2023-12-28T06:53:26;100848.44;;;10.33;100.00
76637;BME280;65532;52.124;5.480;2023-12-28T06:55:52;100850.53;;;10.31;100.00
76637;BME280;65532;52.124;5.480;2023-12-28T06:58:19;100847.84;;;10.31;100.00
76637;BME280;65532;52.124;5.480;2023-12-28T07:00:45;100838.66;;;10.32;100.00
76637;BME280;65532;52.124;5.480;2023-12-28T07:03:13;100854.66;;;10.34;100.00
76637;BME280;65532;52.124;5.480;2023-12-28T07:05:39;100852.56;;;10.36;100.00
76637;BME280;65532;52.124;5.480;2023-12-28T07:08:06;100858.19;;;10.34;100.00
76637;BME280;65532;52.124;5.480;2023-12-28T07:10:33;100851.13;;;10.33;100.00
76637;BME280;65532;52.124;5.480;2023-12-28T07:12:59;100865.72;;;10.32;100.00
76637;BME280;65532;52.124;5.480;2023-12-28T07:15:26;100853.25;;;10.31;100.00
76637;BME280;65532;52.124;5.480;2023-12-28T07:17:52;100864.66;;;10.33;100.00
76637;BME280;65532;52.124;5.480;2023-12-28T07:20:19;100859.56;;;10.25;100.00
76637;BME280;65532;52.124;5.480;2023-12-28T07:22:46;100866.50;;;10.21;100.00
76637;BME280;65532;52.124;5.480;2023-12-28T07:25:12;100861.50;;;10.18;100.00
76637;BME280;65532;52.124;5.480;2023-12-28T07:27:39;100871.13;;;10.14;100.00
76637;BME280;65532;52.124;5.480;2023-12-28T07:30:06;100873.69;;;10.09;100.00
76637;BME280;65532;52.124;5.480;2023-12-28T07:32:33;100877.44;;;10.08;100.00
76637;BME280;65532;52.124;5.480;2023-12-28T07:35:00;100876.84;;;10.06;100.00
76637;BME280;65532;52.124;5.480;2023-12-28T07:37:27;100886.47;;;10.02;100.00
76637;BME280;65532;52.124;5.480;2023-12-28T07:39:53;100873.63;;;9.97;100.00
76637;BME280;65532;52.124;5.480;2023-12-28T07:42:20;100895.41;;;10.02;100.00
76637;BME280;65532;52.124;5.480;2023-12-28T07:44:47;100901.66;;;10.03;100.00
76637;BME280;65532;52.124;5.480;2023-12-28T07:47:14;100894.38;;;10.03;100.00
76637;BME280;65532;52.124;5.480;2023-12-28T07:49:41;100903.16;;;9.99;100.00
76637;BME280;65532;52.124;5.480;2023-12-28T07:52:08;100897.16;;;9.97;100.00
76637;BME280;65532;52.124;5.480;2023-12-28T07:54:35;100899.88;;;9.97;100.00
76637;BME280;65532;52.124;5.480;2023-12-28T07:57:01;100902.56;;;9.97;100.00
76637;BME280;65532;52.124;5.480;2023-12-28T07:59:28;100921.28;;;9.98;100.00
76637;BME280;65532;52.124;5.480;2023-12-28T08:01:55;100925.16;;;10.02;100.00
76637;BME280;65532;52.124;5.480;2023-12-28T08:04:21;100911.41;;;10.04;100.00
76637;BME280;65532;52.124;5.480;2023-12-28T08:06:48;100916.97;;;10.09;100.00
76637;BME280;65532;52.124;5.480;2023-12-28T08:09:15;100913.66;;;10.07;100.00
76637;BME280;65532;52.124;5.480;2023-12-28T08:11:41;100901.56;;;10.09;100.00
76637;BME280;65532;52.124;5.480;2023-12-28T08:14:08;100913.00;;;10.11;100.00
76637;BME280;65532;52.124;5.480;2023-12-28T08:16:34;100914.88;;;10.11;100.00
76637;BME280;65532;52.124;5.480;2023-12-28T08:19:01;100901.38;;;10.11;100.00
76637;BME280;65532;52.124;5.480;2023-12-28T08:21:28;100894.66;;;10.13;100.00
76637;BME280;65532;52.124;5.480;2023-12-28T08:23:55;100905.72;;;10.12;100.00
76637;BME280;65532;52.124;5.480;2023-12-28T08:26:21;100906.31;;;10.14;100.00
76637;BME280;65532;52.124;5.480;2023-12-28T08:28:48;100911.50;;;10.15;100.00
76637;BME280;65532;52.124;5.480;2023-12-28T08:31:14;100920.22;;;10.17;100.00
76637;BME280;65532;52.124;5.480;2023-12-28T08:33:41;100908.56;;;10.17;100.00
76637;BME280;65532;52.124;5.480;2023-12-28T08:36:09;100926.44;;;10.18;100.00
76637;BME280;65532;52.124;5.480;2023-12-28T08:38:35;100917.28;;;10.19;100.00
76637;BME280;65532;52.124;5.480;2023-12-28T08:41:02;100921.44;;;10.22;100.00
76637;BME280;65532;52.124;5.480;2023-12-28T08:43:30;100915.19;;;10.21;100.00
76637;BME280;65532;52.124;5.480;2023-12-28T08:45:56;100926.00;;;10.21;100.00
76637;BME280;65532;52.124;5.480;2023-12-28T08:48:23;100926.00;;;10.21;100.00
76637;BME280;65532;52.124;5.480;2023-12-28T08:50:50;100912.25;;;10.23;100.00
76637;BME280;65532;52.124;5.480;2023-12-28T08:53:17;100925.78;;;10.23;100.00
76637;BME280;65532;52.124;5.480;2023-12-28T08:55:43;100950.97;;;10.23;100.00
76637;BME280;65532;52.124;5.480;2023-12-28T08:58:10;100948.50;;;10.22;100.00
76637;BME280;65532;52.124;5.480;2023-12-28T09:00:36;100928.50;;;10.23;100.00
76637;BME280;65532;52.124;5.480;2023-12-28T09:03:03;100951.78;;;10.24;100.00
76637;BME280;65532;52.124;5.480;2023-12-28T09:05:30;100953.44;;;10.25;100.00
76637;BME280;65532;52.124;5.480;2023-12-28T09:07:56;100951.38;;;10.27;100.00
76637;BME280;65532;52.124;5.480;2023-12-28T09:10:23;100946.53;;;10.29;100.00
76637;BME280;65532;52.124;5.480;2023-12-28T09:12:50;100957.13;;;10.30;100.00
76637;BME280;65532;52.124;5.480;2023-12-28T09:15:17;100934.44;;;10.31;100.00
76637;BME280;65532;52.124;5.480;2023-12-28T09:17:43;100936.69;;;10.34;100.00
76637;BME280;65532;52.124;5.480;2023-12-28T09:20:11;100946.22;;;10.37;100.00
76637;BME280;65532;52.124;5.480;2023-12-28T09:22:38;100948.69;;;10.38;100.00
76637;BME280;65532;52.124;5.480;2023-12-28T09:25:05;100953.06;;;10.39;100.00
76637;BME280;65532;52.124;5.480;2023-12-28T09:27:32;100953.69;;;10.41;100.00
76637;BME280;65532;52.124;5.480;2023-12-28T09:29:58;100954.03;;;10.45;100.00
76637;BME280;65532;52.124;5.480;2023-12-28T09:32:25;100964.88;;;10.45;100.00
76637;BME280;65532;52.124;5.480;2023-12-28T09:34:51;100960.28;;;10.45;100.00
76637;BME280;65532;52.124;5.480;2023-12-28T09:37:18;100967.34;;;10.46;100.00
76637;BME280;65532;52.124;5.480;2023-12-28T09:39:44;100958.53;;;10.51;100.00
76637;BME280;65532;52.124;5.480;2023-12-28T09:42:17;100973.03;;;10.57;100.00
76637;BME280;65532;52.124;5.480;2023-12-28T09:44:49;100965.53;;;10.59;100.00
76637;BME280;65532;52.124;5.480;2023-12-28T09:47:15;100973.56;;;10.65;100.00
76637;BME280;65532;52.124;5.480;2023-12-28T09:49:43;100993.69;;;10.69;100.00
76637;BME280;65532;52.124;5.480;2023-12-28T09:52:10;100983.22;;;10.73;99.99
76637;BME280;65532;52.124;5.480;2023-12-28T09:54:37;100983.84;;;10.75;100.00
76637;BME280;65532;52.124;5.480;2023-12-28T09:57:04;100997.16;;;10.76;99.56
76637;BME280;65532;52.124;5.480;2023-12-28T09:59:32;100991.50;;;10.78;98.86
76637;BME280;65532;52.124;5.480;2023-12-28T10:02:00;100982.94;;;10.81;98.99
76637;BME280;65532;52.124;5.480;2023-12-28T10:04:28;100986.81;;;10.85;98.81
76637;BME280;65532;52.124;5.480;2023-12-28T10:06:55;100977.41;;;10.88;98.44
76637;BME280;65532;52.124;5.480;2023-12-28T10:09:22;100986.00;;;10.85;98.58
76637;BME280;65532;52.124;5.480;2023-12-28T10:11:48;100990.00;;;10.82;98.39
76637;BME280;65532;52.124;5.480;2023-12-28T10:14:15;100992.69;;;10.82;97.87
76637;BME280;65532;52.124;5.480;2023-12-28T10:16:42;100990.00;;;10.82;98.11
76637;BME280;65532;52.124;5.480;2023-12-28T10:19:09;100987.75;;;10.79;98.52
76637;BME280;65532;52.124;5.480;2023-12-28T10:21:35;101004.47;;;10.76;98.79
76637;BME280;65532;52.124;5.480;2023-12-28T10:24:03;100996.63;;;10.68;99.72
76637;BME280;65532;52.124;5.480;2023-12-28T10:26:30;100988.75;;;10.66;99.78
76637;BME280;65532;52.124;5.480;2023-12-28T10:28:59;100993.69;;;10.69;99.44
76637;BME280;65532;52.124;5.480;2023-12-28T10:31:27;100988.66;;;10.73;98.10
76637;BME280;65532;52.124;5.480;2023-12-28T10:33:57;100988.22;;;10.76;98.67
76637;BME280;65532;52.124;5.480;2023-12-28T10:36:27;100983.22;;;10.73;98.87
76637;BME280;65532;52.124;5.480;2023-12-28T10:38:54;100983.84;;;10.75;98.58
76637;BME280;65532;52.124;5.480;2023-12-28T10:41:22;100998.22;;;10.75;98.48
76637;BME280;65532;52.124;5.480;2023-12-28T10:44:04;100992.56;;;10.77;98.71
76637;BME280;65532;52.124;5.480;2023-12-28T10:46:39;100986.09;;;10.78;98.51
76637;BME280;65532;52.124;5.480;2023-12-28T10:49:17;100998.59;;;10.79;98.49
76637;BME280;65532;52.124;5.480;2023-12-28T10:51:51;101003.31;;;10.84;97.75
76637;BME280;65532;52.124;5.480;2023-12-28T10:54:28;101009.47;;;10.91;97.89
76637;BME280;65532;52.124;5.480;2023-12-28T10:57:06;100995.09;;;10.90;97.32
76637;BME280;65532;52.124;5.480;2023-12-28T11:00:00;100990.50;;;10.91;97.76
76637;BME280;65532;52.124;5.480;2023-12-28T11:02:37;100989.06;;;10.88;97.27
76637;BME280;65532;52.124;5.480;2023-12-28T11:05:04;100992.59;;;10.89;97.49
76637;BME280;65532;52.124;5.480;2023-12-28T11:07:33;100987.19;;;10.89;97.09
76637;BME280;65532;52.124;5.480;2023-12-28T11:10:02;100984.72;;;10.87;97.41
76637;BME280;65532;52.124;5.480;2023-12-28T11:12:31;100980.34;;;10.86;97.27
76637;BME280;65532;52.124;5.480;2023-12-28T11:14:59;100984.13;;;10.85;97.35
76637;BME280;65532;52.124;5.480;2023-12-28T11:17:26;100984.59;;;10.82;97.81
76637;BME280;65532;52.124;5.480;2023-12-28T11:19:54;100983.75;;;10.82;97.06
76637;BME280;65532;52.124;5.480;2023-12-28T11:22:22;100978.34;;;10.82;97.38
76637;BME280;65532;52.124;5.480;2023-12-28T11:24:52;100976.44;;;10.82;96.71
76637;BME280;65532;52.124;5.480;2023-12-28T11:27:20;100969.16;;;10.83;96.74
76637;BME280;65532;52.124;5.480;2023-12-28T11:29:49;100972.44;;;10.85;96.07
76637;BME280;65532;52.124;5.480;2023-12-28T11:32:19;100959.75;;;10.85;96.68
76637;BME280;65532;52.124;5.480;2023-12-28T11:34:56;100973.28;;;10.85;96.78
76637;BME280;65532;52.124;5.480;2023-12-28T11:37:23;100955.75;;;10.88;96.86
76637;BME280;65532;52.124;5.480;2023-12-28T11:39:52;100950.13;;;10.89;96.45
76637;BME280;65532;52.124;5.480;2023-12-28T11:42:22;100959.66;;;10.92;96.87
76637;BME280;65532;52.124;5.480;2023-12-28T11:44:54;100966.97;;;10.91;96.71
76637;BME280;65532;52.124;5.480;2023-12-28T11:47:22;100971.31;;;10.92;96.80
76637;BME280;65532;52.124;5.480;2023-12-28T11:49:49;100966.97;;;10.91;96.89
76637;BME280;65532;52.124;5.480;2023-12-28T11:52:26;100961.53;;;10.91;97.09
76637;BME280;65532;52.124;5.480;2023-12-28T11:54:53;100970.09;;;10.88;96.91
76637;BME280;65532;52.124;5.480;2023-12-28T11:57:20;100971.16;;;10.87;97.08
76637;BME280;65532;52.124;5.480;2023-12-28T11:59:52;100981.75;;;10.89;96.38
76637;BME280;65532;52.124;5.480;2023-12-28T12:02:19;100985.34;;;10.89;96.41
76637;BME280;65532;52.124;5.480;2023-12-28T12:04:46;100975.09;;;10.91;96.80
76637;BME280;65532;52.124;5.480;2023-12-28T12:07:13;100969.66;;;10.91;96.33
76637;BME280;65532;52.124;5.480;2023-12-28T12:09:39;100962.97;;;10.94;96.31
76637;BME280;65532;52.124;5.480;2023-12-28T12:12:06;100961.06;;;10.94;96.76
76637;BME280;65532;52.124;5.480;2023-12-28T12:14:34;100953.78;;;10.95;96.39
76637;BME280;65532;52.124;5.480;2023-12-28T12:17:00;100952.72;;;10.96;96.78
76637;BME280;65532;52.124;5.480;2023-12-28T12:19:27;100942.13;;;10.94;96.31
76637;BME280;65532;52.124;5.480;2023-12-28T12:21:55;100942.72;;;10.96;95.85
76637;BME280;65532;52.124;5.480;2023-12-28T12:24:23;100954.97;;;10.99;96.18
76637;BME280;65532;52.124;5.480;2023-12-28T12:26:50;100955.78;;;10.99;95.81
76637;BME280;65532;52.124;5.480;2023-12-28T12:29:17;100943.28;;;10.98;95.19
76637;BME280;65532;52.124;5.480;2023-12-28T12:31:52;100939.53;;;10.99;95.82
76637;BME280;65532;52.124;5.480;2023-12-28T12:34:19;100929.75;;;10.98;95.99
76637;BME280;65532;52.124;5.480;2023-12-28T12:36:45;100943.28;;;10.98;95.45
76637;BME280;65532;52.124;5.480;2023-12-28T12:39:13;100932.47;;;10.98;95.58
76637;BME280;65532;52.124;5.480;2023-12-28T12:41:39;100943.28;;;10.98;95.64
76637;BME280;65532;52.124;5.480;2023-12-28T12:44:07;100937.88;;;10.98;96.18
76637;BME280;65532;52.124;5.480;2023-12-28T12:46:36;100949.78;;;10.97;95.31
76637;BME280;65532;52.124;5.480;2023-12-28T12:49:03;100937.88;;;10.98;95.19
76637;BME280;65532;52.124;5.480;2023-12-28T12:51:31;100955.19;;;10.97;95.24
76637;BME280;65532;52.124;5.480;2023-12-28T12:53:59;100942.72;;;10.96;94.99
76637;BME280;65532;52.124;5.480;2023-12-28T12:56:26;100945.41;;;10.96;95.27
76637;BME280;65532;52.124;5.480;2023-12-28T12:58:54;100939.63;;;10.93;94.77